sensor_id;sensor_type;location;lat;lon;timestamp;pressure;altitude;pressure_sealevel;temperature;humidity
63582;BME280;49727;51.078;17.066;2023-11-21T00:13:50;99362.91;;;7.55;84.00
63582;BME280;49727;51.078;17.066;2023-11-21T00:28:50;99368.88;;;7.49;84.11
63582;BME280;49727;51.078;17.066;2023-11-21T00:43:51;99382.13;;;7.49;83.72
63582;BME280;49727;51.078;17.066;2023-11-21T00:58:51;99376.50;;;7.43;83.88
63582;BME280;49727;51.078;17.066;2023-11-21T01:13:52;99388.44;;;7.39;84.16
63582;BME280;49727;51.078;17.066;2023-11-21T01:28:53;99382.31;;;7.39;84.15
63582;BME280;49727;51.078;17.066;2023-11-21T01:43:55;99394.75;;;7.38;83.84
63582;BME280;49727;51.078;17.066;2023-11-21T01:58:55;99392.09;;;7.38;84.08
63582;BME280;49727;51.078;17.066;2023-11-21T02:13:59;99385.66;;;7.33;83.79
63582;BME280;49727;51.078;17.066;2023-11-21T02:28:59;99391.94;;;7.32;83.83
63582;BME280;49727;51.078;17.066;2023-11-21T02:44:00;99408.00;;;7.38;84.19
63582;BME280;49727;51.078;17.066;2023-11-21T02:59:01;99410.31;;;7.41;84.03
63582;BME280;49727;51.078;17.066;2023-11-21T03:14:01;99412.63;;;7.36;84.21
63582;BME280;49727;51.078;17.066;2023-11-21T03:29:01;99421.41;;;7.37;84.38
63582;BME280;49727;51.078;17.066;2023-11-21T03:44:02;99424.22;;;7.35;84.59
63582;BME280;49727;51.078;17.066;2023-11-21T03:59:02;99431.34;;;7.35;84.70
63582;BME280;49727;51.078;17.066;2023-11-21T04:14:03;99441.13;;;7.34;84.53
63582;BME280;49727;51.078;17.066;2023-11-21T04:29:03;99455.03;;;7.36;84.42
63582;BME280;49727;51.078;17.066;2023-11-21T04:44:07;99461.16;;;7.37;84.67
63582;BME280;49727;51.078;17.066;2023-11-21T04:59:07;99474.09;;;7.32;84.72
63582;BME280;49727;51.078;17.066;2023-11-21T05:14:08;99482.38;;;7.37;84.61
63582;BME280;49727;51.078;17.066;2023-11-21T05:29:08;99476.56;;;7.33;84.72
63582;BME280;49727;51.078;17.066;2023-11-21T05:44:10;99494.75;;;7.36;84.14
63582;BME280;49727;51.078;17.066;2023-11-21T05:59:12;99506.34;;;7.35;84.29
63582;BME280;49727;51.078;17.066;2023-11-21T06:14:13;99512.97;;;7.31;84.52
63582;BME280;49727;51.078;17.066;2023-11-21T06:29:18;99541.13;;;7.24;84.85
63582;BME280;49727;51.078;17.066;2023-11-21T06:44:18;99547.41;;;7.15;84.44
63582;BME280;49727;51.078;17.066;2023-11-21T06:59:20;99552.41;;;7.18;84.55
63582;BME280;49727;51.078;17.066;2023-11-21T07:14:20;99563.31;;;7.23;85.19
63582;BME280;49727;51.078;17.066;2023-11-21T07:29:21;99568.13;;;7.27;84.46
63582;BME280;49727;51.078;17.066;2023-11-21T07:44:21;99580.88;;;7.40;84.71
63582;BME280;49727;51.078;17.066;2023-11-21T07:59:23;99587.19;;;7.48;84.45
63582;BME280;49727;51.078;17.066;2023-11-21T08:14:24;99580.41;;;7.53;84.39
63582;BME280;49727;51.078;17.066;2023-11-21T08:29:27;99610.91;;;7.74;84.60
63582;BME280;49727;51.078;17.066;2023-11-21T08:44:27;99609.22;;;7.97;84.37
63582;BME280;49727;51.078;17.066;2023-11-21T08:59:28;99618.94;;;8.38;83.81
63582;BME280;49727;51.078;17.066;2023-11-21T09:14:28;99631.88;;;8.50;83.55
63582;BME280;49727;51.078;17.066;2023-11-21T09:29:29;99622.53;;;8.62;83.64
63582;BME280;49727;51.078;17.066;2023-11-21T09:44:42;99632.00;;;10.35;82.19
63582;BME280;49727;51.078;17.066;2023-11-21T09:59:46;99639.41;;;9.87;81.14
63582;BME280;49727;51.078;17.066;2023-11-21T10:14:51;99645.69;;;10.47;81.97
63582;BME280;49727;51.078;17.066;2023-11-21T10:29:53;99655.50;;;10.46;80.06
63582;BME280;49727;51.078;17.066;2023-11-21T10:44:54;99664.81;;;9.66;80.14
63582;BME280;49727;51.078;17.066;2023-11-21T10:59:55;99680.75;;;9.43;80.86
63582;BME280;49727;51.078;17.066;2023-11-21T11:14:57;99674.31;;;9.06;80.83
63582;BME280;49727;51.078;17.066;2023-11-21T11:45:19;99701.88;;;7.99;80.26
63582;BME280;49727;51.078;17.066;2023-11-21T12:15:25;99727.47;;;7.33;81.01
63582;BME280;49727;51.078;17.066;2023-11-21T12:30:31;99739.94;;;7.06;80.56
63582;BME280;49727;51.078;17.066;2023-11-21T12:45:31;99759.31;;;6.80;80.44
63582;BME280;49727;51.078;17.066;2023-11-21T13:15:40;99813.25;;;5.99;80.17
63582;BME280;49727;51.078;17.066;2023-11-21T13:30:43;99833.41;;;5.44;79.78
63582;BME280;49727;51.078;17.066;2023-11-21T13:45:45;99850.31;;;5.14;80.07
63582;BME280;49727;51.078;17.066;2023-11-21T14:00:46;99880.97;;;4.87;80.50
63582;BME280;49727;51.078;17.066;2023-11-21T14:15:47;99902.91;;;4.58;80.25
63582;BME280;49727;51.078;17.066;2023-11-21T14:30:51;99949.97;;;4.33;80.17
63582;BME280;49727;51.078;17.066;2023-11-21T14:45:51;99954.03;;;4.06;80.56
63582;BME280;49727;51.078;17.066;2023-11-21T15:00:58;99988.25;;;3.66;79.89
63582;BME280;49727;51.078;17.066;2023-11-21T15:15:59;100003.69;;;3.49;80.43
63582;BME280;49727;51.078;17.066;2023-11-21T15:31:07;100037.66;;;3.31;80.25
63582;BME280;49727;51.078;17.066;2023-11-21T15:46:08;100067.69;;;3.08;80.69
63582;BME280;49727;51.078;17.066;2023-11-21T16:01:09;100083.75;;;2.93;80.05
63582;BME280;49727;51.078;17.066;2023-11-21T16:16:10;100117.25;;;2.80;80.49
63582;BME280;49727;51.078;17.066;2023-11-21T16:31:10;100151.34;;;2.70;80.23
63582;BME280;49727;51.078;17.066;2023-11-21T16:46:11;100168.66;;;2.50;79.76
63582;BME280;49727;51.078;17.066;2023-11-21T17:01:12;100189.31;;;2.32;80.33
63582;BME280;49727;51.078;17.066;2023-11-21T17:16:12;100209.88;;;2.27;79.93
63582;BME280;49727;51.078;17.066;2023-11-21T17:31:13;100216.16;;;2.01;79.86
63582;BME280;49727;51.078;17.066;2023-11-21T17:46:20;100234.44;;;1.79;79.84
63582;BME280;49727;51.078;17.066;2023-11-21T18:01:21;100262.09;;;1.72;79.96
63582;BME280;49727;51.078;17.066;2023-11-21T18:16:22;100274.25;;;1.48;79.37
63582;BME280;49727;51.078;17.066;2023-11-21T18:31:22;100294.56;;;1.33;79.96
63582;BME280;49727;51.078;17.066;2023-11-21T18:46:22;100319.22;;;1.44;80.13
63582;BME280;49727;51.078;17.066;2023-11-21T19:01:26;100333.94;;;1.33;79.72
63582;BME280;49727;51.078;17.066;2023-11-21T19:16:27;100360.09;;;1.22;79.77
63582;BME280;49727;51.078;17.066;2023-11-21T19:31:27;100385.59;;;1.20;79.95
63582;BME280;49727;51.078;17.066;2023-11-21T19:46:27;100409.63;;;1.14;79.72
63582;BME280;49727;51.078;17.066;2023-11-21T20:01:28;100432.81;;;1.20;80.24
63582;BME280;49727;51.078;17.066;2023-11-21T20:16:28;100455.41;;;1.10;79.54
63582;BME280;49727;51.078;17.066;2023-11-21T20:31:29;100478.25;;;0.95;79.63
63582;BME280;49727;51.078;17.066;2023-11-21T20:46:29;100491.66;;;0.90;79.92
63582;BME280;49727;51.078;17.066;2023-11-21T21:01:29;100514.91;;;0.82;79.68
63582;BME280;49727;51.078;17.066;2023-11-21T21:16:29;100535.53;;;0.74;79.38
63582;BME280;49727;51.078;17.066;2023-11-21T21:31:31;100558.34;;;0.59;79.61
63582;BME280;49727;51.078;17.066;2023-11-21T21:46:36;100599.84;;;0.52;79.42
63582;BME280;49727;51.078;17.066;2023-11-21T22:01:42;100616.88;;;0.45;79.60
63582;BME280;49727;51.078;17.066;2023-11-21T22:16:43;100632.88;;;0.55;79.74
63582;BME280;49727;51.078;17.066;2023-11-21T22:31:44;100634.88;;;0.51;79.70
63582;BME280;49727;51.078;17.066;2023-11-21T22:46:44;100644.31;;;0.54;79.77
63582;BME280;49727;51.078;17.066;2023-11-21T23:01:48;100656.00;;;0.62;79.42
63582;BME280;49727;51.078;17.066;2023-11-21T23:16:50;100663.31;;;0.57;79.73
63582;BME280;49727;51.078;17.066;2023-11-21T23:31:51;100661.94;;;0.37;79.48
63582;BME280;49727;51.078;17.066;2023-11-21T23:46:51;100698.97;;;0.31;79.41
